Time;durP1;ratioP1;P1;durP2;ratioP2;P2;SDS_P1;SDS_P2;PMS_P1;PMS_P2;Temp;Humidity;BMP_temperature;BMP_pressure;BME280_temperature;BME280_humidity;BME280_pressure;Samples;Min_cycle;Max_cycle;Signal;HPM_P1;HPM_P2
2022/06/27 00:00:10;;;;;;;7.18;2.65;;;27.60;96.70;;;;;;4932730;29;20097;-80
2022/06/27 00:02:42;;;;;;;8.23;2.75;;;27.40;96.70;;;;;;4932416;28;20050;-81
2022/06/27 00:05:12;;;;;;;9.32;3.20;;;27.30;96.70;;;;;;4930861;29;20142;-79
2022/06/27 00:07:41;;;;;;;8.73;3.22;;;27.30;96.70;;;;;;4917241;29;20079;-78
2022/06/27 00:10:09;;;;;;;7.07;2.75;;;27.30;96.70;;;;;;4935028;29;20465;-79
2022/06/27 00:12:39;;;;;;;5.38;2.42;;;27.30;96.70;;;;;;4937770;29;20795;-80
2022/06/27 00:15:10;;;;;;;7.47;2.67;;;27.20;96.70;;;;;;4934437;29;20050;-80
2022/06/27 00:17:39;;;;;;;8.82;2.40;;;27.10;96.70;;;;;;4936640;29;20091;-80
2022/06/27 00:20:09;;;;;;;8.75;2.50;;;27.10;96.70;;;;;;4935342;29;20047;-80
2022/06/27 00:22:39;;;;;;;6.97;2.20;;;26.90;96.70;;;;;;4929955;29;20063;-80
2022/06/27 00:25:09;;;;;;;8.13;2.50;;;27.00;96.70;;;;;;4936045;29;20134;-80
2022/06/27 00:27:37;;;;;;;8.70;2.50;;;27.00;96.70;;;;;;4934657;29;21781;-80
2022/06/27 00:30:07;;;;;;;8.82;2.55;;;27.10;96.70;;;;;;4933793;29;20514;-80
2022/06/27 00:32:35;;;;;;;10.02;3.20;;;27.00;96.70;;;;;;4930467;29;20055;-80
2022/06/27 00:35:05;;;;;;;10.88;2.50;;;26.90;96.70;;;;;;4936374;29;20391;-80
2022/06/27 00:37:34;;;;;;;9.38;2.35;;;26.80;96.70;;;;;;4931866;29;20137;-79
2022/06/27 00:40:07;;;;;;;6.38;2.22;;;26.70;96.70;;;;;;4935630;29;20039;-80
2022/06/27 00:42:35;;;;;;;9.85;2.38;;;26.80;96.70;;;;;;4918826;29;20048;-80
2022/06/27 00:45:05;;;;;;;8.65;2.63;;;26.70;96.70;;;;;;4927858;29;20474;-80
2022/06/27 00:47:34;;;;;;;9.60;2.80;;;26.80;96.70;;;;;;4940208;28;20132;-80
2022/06/27 00:50:02;;;;;;;12.70;2.75;;;26.50;96.70;;;;;;4931591;28;20043;-80
2022/06/27 00:52:31;;;;;;;6.80;2.10;;;26.70;96.70;;;;;;4921135;29;20937;-80
2022/06/27 00:55:00;;;;;;;6.70;2.10;;;26.70;96.70;;;;;;4934927;29;20134;-80
2022/06/27 00:57:31;;;;;;;8.07;2.60;;;26.80;96.70;;;;;;4934083;29;20138;-80
2022/06/27 00:59:59;;;;;;;8.13;2.50;;;26.70;96.70;;;;;;4914260;29;20070;-81
2022/06/27 01:02:28;;;;;;;10.00;2.30;;;26.70;96.70;;;;;;4936155;29;20440;-80
2022/06/27 01:04:56;;;;;;;9.82;2.78;;;26.60;96.70;;;;;;4933837;29;20079;-80
2022/06/27 01:07:25;;;;;;;11.38;2.55;;;26.60;96.70;;;;;;4923873;29;20063;-81
2022/06/27 01:09:54;;;;;;;10.98;3.60;;;26.60;96.70;;;;;;4917151;29;20588;-80
2022/06/27 01:12:23;;;;;;;8.80;2.67;;;26.40;96.70;;;;;;4937773;28;20122;-80
2022/06/27 01:14:53;;;;;;;11.50;3.05;;;26.00;96.70;;;;;;4937172;29;20051;-77
2022/06/27 01:17:21;;;;;;;9.00;2.10;;;26.00;96.70;;;;;;4921021;29;20059;-77
2022/06/27 01:19:50;;;;;;;7.90;2.30;;;25.90;96.70;;;;;;4945274;28;20040;-77
2022/06/27 01:22:20;;;;;;;6.07;2.50;;;26.00;96.70;;;;;;4929886;29;20048;-77
2022/06/27 01:24:48;;;;;;;8.82;2.90;;;26.10;96.70;;;;;;4924514;29;20050;-77
2022/06/27 01:27:22;;;;;;;9.48;2.80;;;26.00;96.70;;;;;;4939467;28;20730;-78
2022/06/27 01:29:50;;;;;;;9.43;3.05;;;25.70;96.70;;;;;;4935271;29;20059;-78
2022/06/27 01:32:23;;;;;;;10.05;2.88;;;25.50;96.70;;;;;;4940770;29;20181;-78
2022/06/27 01:34:51;;;;;;;5.50;2.08;;;25.70;96.70;;;;;;4924736;29;20047;-77
2022/06/27 01:37:21;;;;;;;9.95;3.08;;;25.80;96.70;;;;;;4954477;28;20048;-78
2022/06/27 01:39:51;;;;;;;8.25;2.88;;;25.90;96.70;;;;;;4931917;29;20043;-78
2022/06/27 01:42:19;;;;;;;11.15;2.08;;;26.10;96.70;;;;;;4929690;28;20142;-77
2022/06/27 01:44:49;;;;;;;10.05;2.65;;;26.20;96.70;;;;;;4922948;29;20058;-78
2022/06/27 01:47:17;;;;;;;8.25;2.88;;;25.90;96.70;;;;;;4934046;29;20138;-78
2022/06/27 01:49:51;;;;;;;9.07;2.55;;;25.90;96.70;;;;;;4922061;29;20055;-77
2022/06/27 01:52:26;;;;;;;7.97;2.38;;;26.00;96.70;;;;;;4937287;28;20043;-78
2022/06/27 01:54:54;;;;;;;9.25;2.75;;;26.00;96.70;;;;;;4935815;29;20414;-78
2022/06/27 01:57:23;;;;;;;12.93;2.65;;;26.10;96.70;;;;;;4929842;28;20040;-78
2022/06/27 01:59:51;;;;;;;10.30;2.40;;;26.00;96.70;;;;;;4932143;29;20660;-77
2022/06/27 02:02:19;;;;;;;8.15;2.53;;;25.90;96.70;;;;;;4927952;29;20043;-77
2022/06/27 02:04:49;;;;;;;8.27;2.30;;;25.90;96.70;;;;;;4919600;29;20502;-77
2022/06/27 02:07:21;;;;;;;6.82;2.00;;;26.00;96.70;;;;;;4931516;29;20066;-77
2022/06/27 02:09:50;;;;;;;7.40;2.03;;;26.00;96.70;;;;;;4918199;29;20063;-76
2022/06/27 02:12:23;;;;;;;12.48;2.10;;;26.00;96.70;;;;;;4936542;29;20055;-77
2022/06/27 02:14:54;;;;;;;8.45;2.42;;;26.00;96.70;;;;;;4931499;29;20111;-78
2022/06/27 02:17:35;;;;;;;8.98;2.35;;;26.00;96.70;;;;;;4934771;29;20150;-76
2022/06/27 02:20:08;;;;;;;7.63;2.33;;;25.80;96.70;;;;;;4922436;29;20801;-76
2022/06/27 02:22:36;;;;;;;9.32;2.78;;;25.80;96.70;;;;;;4930372;29;20140;-77
2022/06/27 02:25:07;;;;;;;8.10;2.47;;;25.80;96.70;;;;;;4938592;29;20101;-77
2022/06/27 02:27:36;;;;;;;14.32;3.17;;;25.60;96.70;;;;;;4935889;29;20059;-78
2022/06/27 02:30:05;;;;;;;10.73;2.42;;;25.30;96.70;;;;;;4935550;29;20066;-77
2022/06/27 02:32:34;;;;;;;7.43;2.33;;;25.00;96.70;;;;;;4934403;29;20130;-77
2022/06/27 02:35:03;;;;;;;8.25;2.72;;;25.00;96.70;;;;;;4935965;29;20054;-76
2022/06/27 02:37:31;;;;;;;9.15;2.58;;;25.10;96.70;;;;;;4930117;28;20123;-77
2022/06/27 02:40:01;;;;;;;8.65;2.60;;;25.20;96.70;;;;;;4931439;28;20047;-77
2022/06/27 02:42:33;;;;;;;11.90;2.30;;;25.30;96.70;;;;;;4939208;28;20571;-77
2022/06/27 02:45:01;;;;;;;8.90;2.80;;;25.30;96.70;;;;;;4930755;29;20044;-77
2022/06/27 02:47:34;;;;;;;8.50;2.72;;;25.40;96.70;;;;;;4934732;28;20035;-76
2022/06/27 02:50:03;;;;;;;8.00;2.17;;;25.40;96.70;;;;;;4930465;29;20055;-76
2022/06/27 02:52:41;;;;;;;6.60;2.28;;;25.50;96.70;;;;;;4930288;29;20051;-77
2022/06/27 02:55:13;;;;;;;7.32;2.50;;;25.50;96.70;;;;;;4919729;29;20073;-78
2022/06/27 02:57:56;;;;;;;5.55;1.80;;;25.60;96.70;;;;;;4938288;28;20040;-77
2022/06/27 03:00:27;;;;;;;6.43;2.15;;;25.70;96.70;;;;;;4932206;29;20047;-78
2022/06/27 03:02:58;;;;;;;6.95;2.70;;;25.60;96.70;;;;;;4931898;29;20055;-77
2022/06/27 03:05:28;;;;;;;5.45;2.00;;;25.60;96.70;;;;;;4924128;29;20534;-77
2022/06/27 03:07:56;;;;;;;8.32;2.28;;;25.30;96.70;;;;;;4932305;29;20051;-77
2022/06/27 03:10:26;;;;;;;8.70;2.38;;;25.10;96.70;;;;;;4935055;28;20065;-80
2022/06/27 03:12:56;;;;;;;10.63;1.95;;;25.20;96.70;;;;;;4920667;29;20059;-80
2022/06/27 03:15:24;;;;;;;7.55;2.38;;;25.30;96.70;;;;;;4920810;29;20062;-80
2022/06/27 03:17:54;;;;;;;11.32;2.25;;;25.30;96.70;;;;;;4921443;29;20114;-79
2022/06/27 03:20:29;;;;;;;8.25;2.58;;;25.30;96.70;;;;;;4929723;29;20052;-80
2022/06/27 03:23:17;;;;;;;10.20;2.47;;;25.40;96.70;;;;;;4936421;29;20426;-80
2022/06/27 03:25:53;;;;;;;7.22;1.95;;;25.30;96.70;;;;;;4936516;29;20050;-81
2022/06/27 03:28:23;;;;;;;8.85;2.58;;;25.30;96.70;;;;;;4932600;29;20056;-80
2022/06/27 03:30:51;;;;;;;8.95;2.60;;;25.40;96.70;;;;;;4919959;29;20106;-81
2022/06/27 03:33:20;;;;;;;9.77;2.58;;;25.20;96.70;;;;;;4931424;29;20047;-81
2022/06/27 03:35:56;;;;;;;;;;;25.20;96.70;;;;;;4935840;28;20549;-81
2022/06/27 03:38:24;;;;;;;11.18;2.40;;;25.10;96.70;;;;;;4914650;28;19933;-80
2022/06/27 03:40:53;;;;;;;10.50;2.90;;;25.10;96.70;;;;;;4932834;29;20143;-81
2022/06/27 03:43:23;;;;;;;7.65;2.53;;;25.00;96.70;;;;;;4928019;29;20438;-78
2022/06/27 03:45:52;;;;;;;9.43;2.30;;;24.80;96.70;;;;;;4933583;29;20058;-78
2022/06/27 03:51:35;;;;;;;8.68;2.05;;;25.10;96.70;;;;;;4933567;28;20059;-75
2022/06/27 03:54:03;;;;;;;10.15;2.60;;;25.10;96.70;;;;;;4936309;28;20056;-76
2022/06/27 03:56:32;;;;;;;11.63;2.40;;;24.90;96.70;;;;;;4932194;29;20044;-75
2022/06/27 03:59:02;;;;;;;7.30;2.13;;;25.00;96.70;;;;;;4925772;29;20058;-75
2022/06/27 04:01:31;;;;;;;5.78;2.40;;;25.20;96.70;;;;;;4927419;28;20082;-76
2022/06/27 04:04:00;;;;;;;7.82;2.17;;;25.20;96.70;;;;;;4937403;29;20098;-77
2022/06/27 04:06:29;;;;;;;10.10;2.40;;;25.40;96.70;;;;;;4931683;29;20051;-77
2022/06/27 04:08:58;;;;;;;7.45;2.53;;;25.30;96.70;;;;;;4919359;29;20947;-76
2022/06/27 04:11:27;;;;;;;6.88;2.08;;;25.20;96.70;;;;;;4933645;29;20055;-77
2022/06/27 04:13:58;;;;;;;7.70;2.28;;;25.30;96.70;;;;;;4932556;29;20040;-77
2022/06/27 04:16:40;;;;;;;8.40;1.95;;;25.30;96.70;;;;;;4935762;29;20149;-76
2022/06/27 04:19:28;;;;;;;6.78;2.17;;;25.30;96.70;;;;;;4930268;29;20091;-77
2022/06/27 04:22:14;;;;;;;;;;;25.30;96.70;;;;;;4931798;28;20516;-77
2022/06/27 04:24:58;;;;;;;10.15;2.78;;;25.30;96.70;;;;;;4933668;29;19954;-77
2022/06/27 04:27:53;;;;;;;8.48;2.20;;;25.20;96.70;;;;;;4928930;29;20110;-76
2022/06/27 04:30:21;;;;;;;10.38;2.60;;;25.20;96.70;;;;;;4932698;29;20043;-78
2022/06/27 04:32:51;;;;;;;8.45;2.72;;;25.30;96.70;;;;;;4938092;29;20490;-77
2022/06/27 04:35:19;;;;;;;7.68;3.00;;;25.20;96.70;;;;;;4939874;29;20051;-77
2022/06/27 04:37:48;;;;;;;10.40;3.53;;;25.10;96.70;;;;;;4934986;28;21200;-77
2022/06/27 04:40:43;;;;;;;14.38;5.95;;;25.30;96.70;;;;;;4914392;29;20166;-77
2022/06/27 04:43:12;;;;;;;18.38;7.15;;;25.20;96.70;;;;;;4937529;29;20138;-77
2022/06/27 04:45:41;;;;;;;21.23;8.25;;;25.20;96.70;;;;;;4928800;29;20153;-76
2022/06/27 04:48:34;;;;;;;14.25;7.63;;;25.30;96.70;;;;;;4939712;29;20119;-76
2022/06/27 04:51:03;;;;;;;19.67;9.05;;;25.40;96.70;;;;;;4938750;29;20054;-76
2022/06/27 04:53:33;;;;;;;14.50;6.97;;;25.30;96.70;;;;;;4935339;29;20063;-77
2022/06/27 04:56:01;;;;;;;13.88;5.50;;;25.40;96.70;;;;;;4925992;29;20145;-78
2022/06/27 04:58:29;;;;;;;11.55;4.57;;;25.50;96.70;;;;;;4943340;29;20155;-78
2022/06/27 05:00:59;;;;;;;10.32;4.13;;;25.50;96.70;;;;;;4932926;29;20078;-78
2022/06/27 05:03:50;;;;;;;12.07;3.70;;;25.50;96.70;;;;;;4933037;29;20051;-78
2022/06/27 05:06:24;;;;;;;15.63;4.10;;;25.50;96.70;;;;;;4930381;29;20066;-78
2022/06/27 05:08:53;;;;;;;10.75;2.97;;;25.40;96.70;;;;;;4925462;29;20303;-77
2022/06/27 05:11:22;;;;;;;8.70;2.95;;;25.40;96.70;;;;;;4935220;29;20070;-78
2022/06/27 05:13:51;;;;;;;8.05;2.88;;;25.30;96.70;;;;;;4928405;29;20410;-78
2022/06/27 05:16:44;;;;;;;7.63;3.08;;;25.50;96.70;;;;;;4940310;28;20059;-78
2022/06/27 05:19:15;;;;;;;12.60;3.10;;;25.70;96.70;;;;;;4929323;28;20057;-78
2022/06/27 05:21:46;;;;;;;10.23;2.80;;;25.50;96.70;;;;;;4942365;29;20058;-77
2022/06/27 05:24:17;;;;;;;10.93;3.60;;;25.50;96.70;;;;;;4930790;29;20054;-77
2022/06/27 05:26:47;;;;;;;9.38;2.95;;;25.50;96.70;;;;;;4937862;29;20723;-78
2022/06/27 05:29:17;;;;;;;9.88;2.70;;;25.40;96.70;;;;;;4941075;29;20142;-78
2022/06/27 05:31:45;;;;;;;9.60;2.28;;;25.40;96.70;;;;;;4954518;28;20146;-76
2022/06/27 05:34:16;;;;;;;8.20;3.33;;;25.50;96.70;;;;;;4946081;28;20130;-78
2022/06/27 05:36:46;;;;;;;11.23;3.10;;;25.70;96.70;;;;;;4931261;29;20051;-77
2022/06/27 05:39:15;;;;;;;9.55;3.08;;;25.80;96.70;;;;;;4936743;29;20044;-78
2022/06/27 05:41:45;;;;;;;9.73;2.75;;;25.80;96.70;;;;;;4937514;29;20119;-78
2022/06/27 05:44:21;;;;;;;9.10;2.58;;;25.70;96.70;;;;;;4952421;28;20074;-78
2022/06/27 05:46:50;;;;;;;7.63;2.67;;;25.80;96.70;;;;;;4945136;28;20118;-78
2022/06/27 05:49:39;;;;;;;12.05;2.83;;;25.90;96.70;;;;;;4939420;28;20063;-78
2022/06/27 05:52:08;;;;;;;5.82;1.83;;;26.10;96.70;;;;;;4927409;29;20465;-77
2022/06/27 05:54:38;;;;;;;7.25;2.65;;;26.20;96.70;;;;;;4952353;28;20139;-78
2022/06/27 05:57:06;;;;;;;6.85;2.08;;;26.30;96.70;;;;;;4942276;29;20080;-77
2022/06/27 05:59:35;;;;;;;14.07;5.00;;;26.30;96.70;;;;;;4938603;29;20094;-79
2022/06/27 06:02:04;;;;;;;15.45;6.22;;;26.30;96.70;;;;;;4932679;28;20085;-80
2022/06/27 06:04:39;;;;;;;12.27;5.20;;;26.30;96.70;;;;;;4938090;29;20052;-80
2022/06/27 06:07:12;;;;;;;12.70;3.50;;;26.30;96.70;;;;;;4939536;29;20051;-80
2022/06/27 06:09:40;;;;;;;11.15;3.42;;;26.30;96.70;;;;;;4929228;29;20526;-80
2022/06/27 06:12:12;;;;;;;13.43;3.42;;;26.40;96.70;;;;;;4933131;29;20491;-78
2022/06/27 06:14:49;;;;;;;13.15;4.32;;;26.60;96.70;;;;;;4939270;28;20100;-78
2022/06/27 06:17:31;;;;;;;12.88;4.05;;;26.60;96.70;;;;;;4932238;29;20062;-78
2022/06/27 06:20:03;;;;;;;15.23;3.60;;;26.60;96.70;;;;;;4938310;29;20134;-78
2022/06/27 06:22:32;;;;;;;10.98;3.28;;;26.60;96.70;;;;;;4944627;29;20059;-78
2022/06/27 06:25:01;;;;;;;12.85;3.88;;;26.60;96.70;;;;;;4957402;28;20057;-79
2022/06/27 06:27:29;;;;;;;12.95;3.80;;;26.70;96.70;;;;;;4935515;29;20071;-78
2022/06/27 06:30:02;;;;;;;14.55;3.25;;;26.90;96.70;;;;;;4952734;28;20051;-78
2022/06/27 06:32:34;;;;;;;15.32;4.20;;;26.90;96.70;;;;;;4926055;29;20059;-79
2022/06/27 06:35:05;;;;;;;13.40;3.70;;;27.00;96.70;;;;;;4957183;28;20105;-78
2022/06/27 06:37:39;;;;;;;11.55;3.83;;;27.20;96.70;;;;;;4916887;29;20543;-80
2022/06/27 06:40:12;;;;;;;13.68;4.30;;;27.20;96.70;;;;;;4958317;28;20057;-81
2022/06/27 06:42:40;;;;;;;10.07;4.05;;;27.30;96.70;;;;;;4929991;29;20050;-80
2022/06/27 06:45:24;;;;;;;18.17;4.88;;;27.30;96.70;;;;;;4938137;28;20043;-81
2022/06/27 06:48:08;;;;;;;16.23;5.85;;;27.50;96.70;;;;;;4922743;29;20059;-80
2022/06/27 06:50:38;;;;;;;17.48;5.15;;;27.50;96.70;;;;;;4936583;29;20051;-80
2022/06/27 06:53:06;;;;;;;15.15;5.40;;;27.60;96.70;;;;;;4940821;29;20457;-81
2022/06/27 06:55:35;;;;;;;17.60;4.78;;;27.70;96.70;;;;;;4926031;29;20047;-82
2022/06/27 06:58:05;;;;;;;13.93;4.60;;;27.70;96.70;;;;;;4944267;29;20134;-80
2022/06/27 07:00:35;;;;;;;15.98;4.68;;;27.80;96.70;;;;;;4928060;29;20107;-79
2022/06/27 07:03:03;;;;;;;14.02;5.10;;;27.90;96.70;;;;;;4939066;29;20046;-81
2022/06/27 07:05:32;;;;;;;9.90;3.80;;;28.00;96.70;;;;;;4929371;29;20059;-80
2022/06/27 07:08:03;;;;;;;10.52;3.47;;;28.10;96.70;;;;;;4941404;28;20107;-79
2022/06/27 07:10:31;;;;;;;18.00;3.60;;;28.10;96.70;;;;;;4944837;28;21193;-80
2022/06/27 07:12:59;;;;;;;18.40;3.85;;;28.20;96.70;;;;;;4942217;29;20082;-81
2022/06/27 07:15:28;;;;;;;16.30;3.55;;;28.40;96.70;;;;;;4943261;28;20079;-82
2022/06/27 07:17:56;;;;;;;14.43;3.40;;;28.50;96.70;;;;;;4944211;29;20071;-82
2022/06/27 07:20:26;;;;;;;15.73;3.28;;;28.70;96.70;;;;;;4941059;29;20055;-81
2022/06/27 07:22:54;;;;;;;10.13;2.95;;;28.90;96.70;;;;;;4942194;29;20054;-80
2022/06/27 07:25:25;;;;;;;12.90;3.22;;;28.90;96.70;;;;;;4935129;29;20051;-82
2022/06/27 07:27:55;;;;;;;13.48;3.10;;;28.90;96.70;;;;;;4945535;28;20793;-82
2022/06/27 07:30:24;;;;;;;14.38;3.17;;;29.10;96.70;;;;;;4939770;28;20126;-82
2022/06/27 07:32:52;;;;;;;13.25;3.17;;;29.20;96.70;;;;;;4938830;29;20497;-82
2022/06/27 07:35:22;;;;;;;9.38;2.53;;;29.40;96.70;;;;;;4934902;29;20126;-82
2022/06/27 07:37:52;;;;;;;13.80;2.97;;;29.60;96.70;;;;;;4936108;29;20044;-81
2022/06/27 07:40:22;;;;;;;12.70;2.72;;;29.70;96.70;;;;;;4935225;29;20051;-83
2022/06/27 07:43:02;;;;;;;17.17;3.30;;;29.70;96.70;;;;;;4940498;28;20121;-82
2022/06/27 07:45:30;;;;;;;15.80;3.45;;;29.80;96.70;;;;;;4948856;28;20151;-79
2022/06/27 07:47:59;;;;;;;13.30;3.47;;;29.90;96.70;;;;;;4932455;29;20043;-81
2022/06/27 07:50:39;;;;;;;16.42;3.17;;;30.00;96.70;;;;;;4942297;29;20051;-80
2022/06/27 07:53:14;;;;;;;14.43;3.42;;;30.10;96.70;;;;;;4941306;29;20141;-80
2022/06/27 07:55:46;;;;;;;19.20;3.55;;;30.20;96.70;;;;;;4920555;29;20426;-80
2022/06/27 07:58:16;;;;;;;11.20;3.60;;;30.30;96.70;;;;;;4936268;28;20051;-81
2022/06/27 08:00:47;;;;;;;19.42;3.40;;;30.50;96.70;;;;;;4940312;29;20083;-81
2022/06/27 08:06:05;;;;;;;13.98;3.13;;;30.70;96.70;;;;;;4944335;29;20070;-81
2022/06/27 08:08:36;;;;;;;14.27;4.03;;;30.60;96.70;;;;;;4933062;29;20449;-80
2022/06/27 08:11:06;;;;;;;17.13;3.33;;;30.70;96.10;;;;;;4937359;28;20052;-80
2022/06/27 08:13:36;;;;;;;14.05;2.97;;;30.90;94.10;;;;;;4925798;29;20043;-79
2022/06/27 08:16:05;;;;;;;19.40;3.70;;;31.00;93.80;;;;;;4944510;29;20071;-78
2022/06/27 08:18:35;;;;;;;18.23;3.85;;;31.00;93.80;;;;;;4943473;28;20130;-76
2022/06/27 08:21:03;;;;;;;18.75;3.58;;;31.10;93.70;;;;;;4921762;29;20044;-77
2022/06/27 08:23:31;;;;;;;14.13;3.53;;;31.30;93.20;;;;;;4932345;29;20057;-77
2022/06/27 08:25:59;;;;;;;15.30;3.47;;;31.30;93.50;;;;;;4941651;28;20516;-76
2022/06/27 08:28:28;;;;;;;14.50;3.10;;;31.30;92.60;;;;;;4954029;28;20418;-79
2022/06/27 08:31:01;;;;;;;14.95;3.63;;;31.30;92.60;;;;;;4938369;29;20048;-80
2022/06/27 08:33:31;;;;;;;21.67;3.50;;;31.30;92.80;;;;;;4936160;29;20465;-79
2022/06/27 08:36:01;;;;;;;18.27;3.58;;;31.50;91.80;;;;;;4929084;29;20425;-79
2022/06/27 08:38:29;;;;;;;17.73;3.95;;;31.70;91.10;;;;;;4938713;28;20076;-80
2022/06/27 08:40:59;;;;;;;13.65;3.25;;;31.90;90.40;;;;;;4941571;28;20039;-80
2022/06/27 08:43:28;;;;;;;21.02;4.28;;;31.90;90.30;;;;;;4943271;29;20498;-79
2022/06/27 08:45:58;;;;;;;17.77;3.20;;;31.90;90.90;;;;;;4938042;29;20047;-80
2022/06/27 08:48:28;;;;;;;13.98;3.47;;;31.90;90.30;;;;;;4943591;29;20118;-81
2022/06/27 08:50:59;;;;;;;17.05;4.13;;;32.00;90.80;;;;;;4934237;28;20040;-81
2022/06/27 08:53:27;;;;;;;18.25;3.10;;;31.90;89.70;;;;;;4945862;29;20564;-78
2022/06/27 08:55:55;;;;;;;20.85;3.72;;;32.00;89.40;;;;;;4936804;28;20070;-77
2022/06/27 08:58:25;;;;;;;15.73;3.25;;;32.10;89.60;;;;;;4944931;29;20051;-79
2022/06/27 09:00:53;;;;;;;15.38;3.67;;;32.10;89.30;;;;;;4943650;29;20079;-81
2022/06/27 09:03:34;;;;;;;17.88;4.28;;;32.10;89.70;;;;;;4924008;29;20059;-80
2022/06/27 09:06:04;;;;;;;15.85;4.30;;;32.30;89.10;;;;;;4940441;29;20051;-80
2022/06/27 09:08:36;;;;;;;12.75;3.33;;;32.30;90.40;;;;;;4946579;28;20043;-81
2022/06/27 09:11:04;;;;;;;17.70;3.80;;;32.40;90.60;;;;;;4942670;29;20048;-81
2022/06/27 09:13:33;;;;;;;15.45;3.35;;;32.40;90.10;;;;;;4940472;29;20521;-80
2022/06/27 09:16:02;;;;;;;14.73;3.58;;;32.50;89.40;;;;;;4943218;29;20040;-78
2022/06/27 09:18:34;;;;;;;17.92;4.32;;;32.40;90.50;;;;;;4948511;28;20076;-81
2022/06/27 09:21:04;;;;;;;20.58;3.67;;;32.30;89.70;;;;;;4947820;29;20398;-81
2022/06/27 09:23:41;;;;;;;15.52;4.10;;;32.30;89.20;;;;;;4942738;28;20127;-83
2022/06/27 09:26:12;;;;;;;15.63;3.50;;;32.40;88.60;;;;;;4937973;29;20055;-81
2022/06/27 09:28:43;;;;;;;15.77;3.67;;;32.60;88.50;;;;;;4936976;29;20067;-79
2022/06/27 09:31:27;;;;;;;14.20;3.30;;;32.60;89.10;;;;;;4940617;29;20046;-79
2022/06/27 09:34:03;;;;;;;22.08;4.80;;;32.80;89.30;;;;;;4940861;29;20074;-80
2022/06/27 09:36:33;;;;;;;16.90;4.07;;;32.90;88.10;;;;;;4951562;28;20062;-82
2022/06/27 09:39:02;;;;;;;21.33;4.07;;;32.80;88.20;;;;;;4927067;29;20075;-79
2022/06/27 09:41:32;;;;;;;19.02;4.50;;;32.80;87.60;;;;;;4941429;29;20052;-78
2022/06/27 09:44:10;;;;;;;18.48;4.25;;;32.80;87.90;;;;;;4941163;28;20276;-79
2022/06/27 09:46:42;;;;;;;18.35;4.20;;;32.80;87.20;;;;;;4947399;29;20034;-79
2022/06/27 09:49:14;;;;;;;17.55;3.88;;;33.00;88.00;;;;;;4938958;28;20082;-80
2022/06/27 09:51:42;;;;;;;15.57;3.88;;;33.10;87.90;;;;;;4942772;29;20042;-80
2022/06/27 09:54:16;;;;;;;19.88;3.67;;;33.30;87.20;;;;;;4929831;29;20050;-80
2022/06/27 09:56:48;;;;;;;22.73;4.70;;;33.40;86.90;;;;;;4919960;29;20119;-78
2022/06/27 09:59:18;;;;;;;27.95;5.28;;;33.30;86.50;;;;;;4933376;29;20518;-78
2022/06/27 10:01:49;;;;;;;17.38;3.92;;;33.50;87.10;;;;;;4940727;28;20099;-80
2022/06/27 10:04:24;;;;;;;17.20;3.50;;;33.70;85.90;;;;;;4936075;29;20047;-80
2022/06/27 10:06:56;;;;;;;16.80;4.03;;;33.70;85.70;;;;;;4927362;29;20051;-79
2022/06/27 10:09:25;;;;;;;21.48;3.97;;;33.90;84.70;;;;;;4939263;29;20110;-79
2022/06/27 10:12:21;;;;;;;20.85;4.15;;;34.00;85.80;;;;;;4936446;29;20494;-80
2022/06/27 10:15:17;;;;;;;15.82;4.60;;;34.00;84.80;;;;;;4938365;29;20047;-80
2022/06/27 10:17:54;;;;;;;16.48;4.43;;;34.10;84.30;;;;;;4959645;28;20047;-80
2022/06/27 10:20:32;;;;;;;23.88;5.07;;;34.40;83.60;;;;;;4945589;28;20167;-80
2022/06/27 10:23:31;;;;;;;22.42;4.55;;;34.50;82.50;;;;;;4944798;29;20106;-79
2022/06/27 10:26:01;;;;;;;20.70;4.07;;;34.60;84.10;;;;;;4946974;29;20055;-80
2022/06/27 10:28:29;;;;;;;18.80;4.53;;;34.60;82.00;;;;;;4939376;29;20078;-80
2022/06/27 10:30:58;;;;;;;18.33;3.90;;;34.80;81.10;;;;;;4932491;29;20409;-82
2022/06/27 10:33:37;;;;;;;17.08;4.22;;;34.60;81.20;;;;;;4921530;29;20086;-81
2022/06/27 10:36:14;;;;;;;20.15;4.20;;;34.30;82.20;;;;;;4928514;29;20518;-81
2022/06/27 10:39:01;;;;;;;14.15;4.28;;;34.20;82.10;;;;;;4918937;29;20091;-81
2022/06/27 10:41:40;;;;;;;20.92;5.45;;;34.20;81.70;;;;;;4944253;28;20498;-81
2022/06/27 10:44:38;;;;;;;19.00;4.57;;;34.30;81.40;;;;;;4943280;29;20070;-80
2022/06/27 10:47:32;;;;;;;19.27;4.97;;;34.20;81.50;;;;;;4860723;29;21403;-80
2022/06/27 10:50:14;;;;;;;21.40;4.70;;;34.50;81.40;;;;;;4887128;29;20065;-80
2022/06/27 10:52:46;;;;;;;23.83;5.60;;;34.60;81.30;;;;;;4871278;29;20064;-80
2022/06/27 10:55:22;;;;;;;18.55;4.70;;;34.90;81.30;;;;;;4850939;29;20052;-80
2022/06/27 10:57:51;;;;;;;;;;;35.00;82.20;;;;;;4871340;29;20064;-81
2022/06/27 11:00:46;;;;;;;22.35;4.63;;;35.20;81.90;;;;;;4887468;29;20350;-81
2022/06/27 11:03:23;;;;;;;22.80;4.60;;;35.40;79.10;;;;;;4886728;29;20139;-81
2022/06/27 11:05:55;;;;;;;27.67;5.85;;;35.60;81.20;;;;;;4867206;29;20053;-80
2022/06/27 11:08:26;;;;;;;20.90;5.03;;;35.40;79.60;;;;;;4869299;29;20626;-80
2022/06/27 11:10:55;;;;;;;22.60;4.63;;;35.30;78.70;;;;;;4887042;29;20052;-82
2022/06/27 11:13:41;;;;;;;23.50;4.70;;;35.50;78.10;;;;;;4868132;29;20451;-81
2022/06/27 11:16:12;;;;;;;18.38;4.75;;;35.70;77.80;;;;;;4887724;29;20060;-82
2022/06/27 11:18:43;;;;;;;26.60;5.82;;;35.90;78.50;;;;;;4852945;29;20068;-81
2022/06/27 11:21:12;;;;;;;20.17;4.97;;;36.00;80.00;;;;;;4910713;29;20154;-79
2022/06/27 11:23:54;;;;;;;22.40;5.38;;;36.10;79.30;;;;;;4945630;29;20727;-81
2022/06/27 11:26:25;;;;;;;21.70;5.05;;;36.20;78.30;;;;;;4936825;29;20035;-83
2022/06/27 11:31:57;;;;;;;20.80;4.30;;;36.20;78.30;;;;;;4957626;28;20082;-84
2022/06/27 11:34:30;;;;;;;18.63;5.75;;;36.10;77.40;;;;;;4948802;29;20106;-83
2022/06/27 11:36:59;;;;;;;20.92;5.88;;;36.20;77.80;;;;;;4947495;29;20070;-84
2022/06/27 11:39:31;;;;;;;22.25;5.70;;;36.50;77.90;;;;;;4925683;29;20078;-83
2022/06/27 11:42:02;;;;;;;20.10;4.85;;;36.60;76.00;;;;;;4949405;29;20162;-84
2022/06/27 11:44:33;;;;;;;27.50;5.70;;;36.70;76.50;;;;;;4932225;29;20471;-84
2022/06/27 11:47:05;;;;;;;22.58;6.00;;;36.80;76.20;;;;;;4948320;29;20039;-83
2022/06/27 11:49:35;;;;;;;26.45;5.10;;;36.90;75.80;;;;;;4962277;28;20040;-83
2022/06/27 11:52:13;;;;;;;25.95;5.40;;;36.90;77.60;;;;;;4947997;29;20172;-83
2022/06/27 11:54:48;;;;;;;21.38;5.57;;;37.10;76.50;;;;;;4949331;28;20043;-84
2022/06/27 11:57:25;;;;;;;25.63;5.72;;;37.10;75.10;;;;;;4948600;29;20505;-85
2022/06/27 11:59:56;;;;;;;22.55;5.60;;;37.10;75.10;;;;;;4949486;29;20427;-83
2022/06/27 12:02:30;;;;;;;25.48;4.93;;;37.10;75.30;;;;;;4939733;29;20070;-82
2022/06/27 12:05:07;;;;;;;22.15;5.00;;;37.20;74.50;;;;;;4945791;28;20062;-81
2022/06/27 12:07:56;;;;;;;20.35;4.40;;;37.10;75.10;;;;;;4939457;28;20498;-81
2022/06/27 12:10:44;;;;;;;19.38;5.43;;;36.90;74.60;;;;;;4929800;29;20105;-82
2022/06/27 12:13:15;;;;;;;20.23;5.07;;;36.70;75.90;;;;;;4941339;28;20050;-81
2022/06/27 12:15:46;;;;;;;24.38;5.00;;;36.80;75.90;;;;;;4937302;28;20054;-81
2022/06/27 12:18:14;;;;;;;15.85;4.43;;;37.10;76.10;;;;;;4932172;29;20537;-82
2022/06/27 12:20:44;;;;;;;21.77;4.78;;;37.40;76.30;;;;;;4941550;29;20044;-79
2022/06/27 12:23:12;;;;;;;16.90;4.95;;;37.50;75.10;;;;;;4937553;29;20047;-80
2022/06/27 12:25:42;;;;;;;16.95;4.70;;;37.40;75.10;;;;;;4941878;28;20053;-79
2022/06/27 12:28:10;;;;;;;20.02;4.78;;;37.20;76.80;;;;;;4938619;29;20055;-79
2022/06/27 12:30:39;;;;;;;25.08;6.00;;;37.30;76.00;;;;;;4942030;28;20047;-79
2022/06/27 12:33:08;;;;;;;17.08;5.32;;;37.50;76.50;;;;;;4934103;29;20058;-80
2022/06/27 12:35:38;;;;;;;18.73;5.32;;;37.60;75.50;;;;;;4940654;29;20126;-80
2022/06/27 12:38:07;;;;;;;25.40;5.50;;;37.70;75.40;;;;;;4919968;29;20051;-79
2022/06/27 12:40:36;;;;;;;26.75;4.80;;;37.80;75.50;;;;;;4940316;29;20707;-80
2022/06/27 12:43:06;;;;;;;21.48;5.60;;;37.90;75.60;;;;;;4933217;29;21177;-79
2022/06/27 12:45:36;;;;;;;19.13;5.05;;;37.80;75.20;;;;;;4922684;29;20099;-78
2022/06/27 12:48:06;;;;;;;21.58;5.30;;;37.80;75.00;;;;;;4953625;28;20375;-77
2022/06/27 12:50:35;;;;;;;22.33;5.07;;;37.80;74.90;;;;;;4923616;29;20043;-80
2022/06/27 12:53:04;;;;;;;19.35;4.93;;;37.80;74.90;;;;;;4933833;29;20050;-77
2022/06/27 12:55:43;;;;;;;26.73;5.38;;;37.70;75.00;;;;;;4939836;29;20938;-77
2022/06/27 12:58:13;;;;;;;24.63;5.40;;;37.80;74.90;;;;;;4937737;29;20043;-79
2022/06/27 13:00:41;;;;;;;24.50;5.38;;;38.00;75.30;;;;;;4944441;28;20047;-78
2022/06/27 13:03:09;;;;;;;20.30;6.13;;;38.20;75.20;;;;;;4940873;29;20036;-77
2022/06/27 13:05:38;;;;;;;19.80;5.10;;;38.20;75.30;;;;;;4933844;29;20054;-79
2022/06/27 13:08:07;;;;;;;18.73;4.97;;;38.20;76.10;;;;;;4936138;29;20044;-79
2022/06/27 13:10:35;;;;;;;20.33;5.35;;;38.00;76.10;;;;;;4948863;28;20065;-78
2022/06/27 13:13:04;;;;;;;14.93;4.40;;;37.70;76.90;;;;;;4940249;29;20054;-80